createdAt,value
2018-04-16T00:04:22.470Z,1008.1
2018-04-16T00:09:22.649Z,1008.1
2018-04-16T00:14:22.623Z,1007.9
2018-04-16T00:19:23.174Z,1008.1
2018-04-16T00:24:23.055Z,1008.3
2018-04-16T00:29:35.884Z,1008.4
2018-04-16T00:34:35.611Z,1008.7
2018-04-16T00:39:35.853Z,1008.8
2018-04-16T00:44:36.213Z,1009
2018-04-16T00:49:35.768Z,1009.1
2018-04-16T00:54:35.873Z,1009
2018-04-16T00:59:35.876Z,1009
2018-04-16T01:04:37.090Z,1009.1
2018-04-16T01:09:36.771Z,1009
2018-04-16T01:14:50.852Z,1009.2
2018-04-16T01:19:50.795Z,1009.3
2018-04-16T01:24:50.742Z,1009.3
2018-04-16T01:29:50.840Z,1009.6
2018-04-16T01:34:50.774Z,1009.6
2018-04-16T01:39:50.613Z,1009.8
2018-04-16T01:44:50.611Z,1009.9
2018-04-16T01:49:50.753Z,1010
2018-04-16T01:54:50.816Z,1010.1
2018-04-16T01:59:50.826Z,1009.9
2018-04-16T02:04:50.627Z,1010.1
2018-04-16T02:09:50.620Z,1010.2
2018-04-16T02:14:53.997Z,1010
2018-04-16T02:19:53.928Z,1009.6
2018-04-16T02:25:06.523Z,1009.9
2018-04-16T02:30:06.498Z,1009.9
2018-04-16T02:35:06.440Z,1010.1
2018-04-16T02:40:06.494Z,1010.2
2018-04-16T02:45:06.505Z,1010.2
2018-04-16T02:50:06.433Z,1010.3
2018-04-16T02:55:06.280Z,1010.3
2018-04-16T03:00:07.408Z,1010.2
2018-04-16T03:05:07.120Z,1010.1
2018-04-16T03:10:20.000Z,1010
2018-04-16T03:15:19.858Z,1010.1
2018-04-16T03:20:19.877Z,1010.4
2018-04-16T03:25:19.881Z,1010.4
2018-04-16T03:30:19.921Z,1010.5
2018-04-16T03:35:19.727Z,1010.5
2018-04-16T03:40:19.888Z,1010.3
2018-04-16T03:45:19.904Z,1010.3
2018-04-16T03:50:19.867Z,1010.4
2018-04-16T03:55:19.777Z,1010.4
2018-04-16T04:00:19.749Z,1010.5
2018-04-16T04:05:19.954Z,1010.5
2018-04-16T04:10:23.865Z,1010.6
2018-04-16T04:15:23.621Z,1010.6
2018-04-16T04:20:36.688Z,1010.6
2018-04-16T04:25:37.179Z,1010.6
2018-04-16T04:30:36.437Z,1010.8
2018-04-16T04:35:36.640Z,1010.7
2018-04-16T04:40:37.580Z,1010.6
2018-04-16T04:45:36.603Z,1010.7
2018-04-16T04:50:36.636Z,1010.6
2018-04-16T04:55:38.225Z,1010.7
2018-04-16T05:00:38.141Z,1010.8
2018-04-16T05:05:51.092Z,1010.9
2018-04-16T05:10:52.052Z,1010.8
2018-04-16T05:15:50.842Z,1010.9
2018-04-16T05:20:51.017Z,1011.1
2018-04-16T05:25:50.861Z,1011.1
2018-04-16T05:30:50.826Z,1011.2
2018-04-16T05:35:50.954Z,1011.1
2018-04-16T05:40:50.994Z,1011.2
2018-04-16T05:45:50.836Z,1011.3
2018-04-16T05:50:51.065Z,1011.2
2018-04-16T05:55:51.032Z,1011.3
2018-04-16T06:00:50.821Z,1011.4
2018-04-16T06:05:54.484Z,1011.4
2018-04-16T06:10:54.362Z,1011.4
2018-04-16T06:16:06.855Z,1011.1
2018-04-16T06:21:06.544Z,1010.9
2018-04-16T06:26:06.777Z,1011.1
2018-04-16T06:31:06.602Z,1011
2018-04-16T06:36:06.664Z,1011.4
2018-04-16T06:41:06.793Z,1011.8
2018-04-16T06:46:06.980Z,1012
2018-04-16T06:51:08.099Z,1012
2018-04-16T06:56:07.851Z,1012.1
2018-04-16T07:01:21.161Z,1012.1
2018-04-16T07:06:20.976Z,1012.2
2018-04-16T07:11:20.771Z,1012.2
2018-04-16T07:16:20.937Z,1012.2
2018-04-16T07:21:21.001Z,1012.3
2018-04-16T07:26:20.871Z,1012.3
2018-04-16T07:31:21.047Z,1012.3
2018-04-16T07:36:23.239Z,1012.4
2018-04-16T07:41:23.309Z,1012.5
2018-04-16T07:46:35.969Z,1012.5
2018-04-16T07:51:35.866Z,1012.7
2018-04-16T07:56:35.721Z,1012.7
2018-04-16T08:01:35.955Z,1012.9
2018-04-16T08:06:36.107Z,1012.8
2018-04-16T08:11:35.935Z,1012.9
2018-04-16T08:16:35.688Z,1012.8
2018-04-16T08:21:36.850Z,1013
2018-04-16T08:26:37.816Z,1013.2
2018-04-16T08:31:49.528Z,1013.2
2018-04-16T08:36:49.438Z,1013.2
2018-04-16T08:41:49.513Z,1013.3
2018-04-16T08:46:49.384Z,1013.3
2018-04-16T08:51:49.424Z,1013.3
2018-04-16T08:56:49.476Z,1013.3
2018-04-16T09:01:49.396Z,1013.3
2018-04-16T09:06:51.994Z,1013.4
2018-04-16T09:11:51.952Z,1013.4
2018-04-16T09:17:05.671Z,1013.5
2018-04-16T09:22:06.144Z,1013.6
2018-04-16T09:27:05.638Z,1013.7
2018-04-16T09:32:05.416Z,1013.8
2018-04-16T09:37:05.618Z,1013.9
2018-04-16T09:42:05.537Z,1013.9
2018-04-16T09:47:05.494Z,1013.8
2018-04-16T09:52:06.188Z,1013.9
2018-04-16T09:57:08.690Z,1013.9
2018-04-16T10:02:20.340Z,1013.9
2018-04-16T10:07:20.271Z,1013.8
2018-04-16T10:12:20.288Z,1013.8
2018-04-16T10:17:20.217Z,1013.7
2018-04-16T10:22:20.262Z,1013.8
2018-04-16T10:27:20.071Z,1013.6
2018-04-16T10:32:20.651Z,1013.6
2018-04-16T10:37:20.268Z,1013.7
2018-04-16T10:42:20.316Z,1013.8
2018-04-16T10:47:20.205Z,1013.8
2018-04-16T10:52:20.253Z,1013.8
2018-04-16T10:57:20.098Z,1013.8
2018-04-16T11:02:22.090Z,1013.8
2018-04-16T11:07:21.994Z,1013.8
2018-04-16T11:12:22.034Z,1013.8
2018-04-16T11:17:24.846Z,1013.8
2018-04-16T11:22:24.728Z,1013.8
2018-04-16T11:27:24.598Z,1013.8
2018-04-16T11:32:24.787Z,1013.6
2018-04-16T11:37:24.560Z,1013.6
2018-04-16T11:42:24.794Z,1013.5
2018-04-16T11:47:24.724Z,1013.4
2018-04-16T11:52:25.023Z,1013.5
2018-04-16T11:57:24.761Z,1013.4
2018-04-16T12:02:37.703Z,1013.5
2018-04-16T12:07:37.659Z,1013.5
2018-04-16T12:12:37.723Z,1013.6
2018-04-16T12:17:37.595Z,1013.5
2018-04-16T12:22:37.424Z,1013.7
2018-04-16T12:27:37.623Z,1013.8
2018-04-16T12:32:37.442Z,1014
2018-04-16T12:37:37.631Z,1014.3
2018-04-16T12:42:37.825Z,1014.3
2018-04-16T12:47:50.582Z,1014.4
2018-04-16T12:52:50.452Z,1014.3
2018-04-16T12:57:50.512Z,1014.3
2018-04-16T13:02:50.285Z,1014.3
2018-04-16T13:07:50.681Z,1014.2
2018-04-16T13:12:50.293Z,1014.2
2018-04-16T13:17:50.414Z,1014.3
2018-04-16T13:22:51.844Z,1014.3
2018-04-16T13:27:51.572Z,1014.3
2018-04-16T13:33:04.569Z,1014.5
2018-04-16T13:38:04.983Z,1014.4
2018-04-16T13:43:04.681Z,1014.6
2018-04-16T13:48:04.535Z,1014.4
2018-04-16T13:53:04.579Z,1014.4
2018-04-16T13:58:04.625Z,1014.4
2018-04-16T14:03:04.534Z,1014.4
2018-04-16T14:08:05.284Z,1014.5
2018-04-16T14:13:05.268Z,1014.5
2018-04-16T14:18:18.148Z,1014.7
2018-04-16T14:23:18.016Z,1014.7
2018-04-16T14:28:18.050Z,1014.8
2018-04-16T14:33:17.921Z,1015.1
2018-04-16T14:38:17.849Z,1015.1
2018-04-16T14:43:17.855Z,1015.1
2018-04-16T14:48:17.872Z,1015.2
2018-04-16T14:53:18.050Z,1015.4
2018-04-16T14:58:18.323Z,1015.2
2018-04-16T15:03:29.854Z,1015.4
2018-04-16T15:08:29.474Z,1015.4
2018-04-16T15:13:29.506Z,1015.4
2018-04-16T15:18:29.732Z,1015.6
2018-04-16T15:23:29.981Z,1015.5
2018-04-16T15:28:29.747Z,1015.4
2018-04-16T15:33:29.737Z,1015.5
2018-04-16T15:38:33.238Z,1015.5
2018-04-16T15:43:33.081Z,1015.5
2018-04-16T15:48:45.244Z,1015.4
2018-04-16T15:53:45.008Z,1015.6
2018-04-16T15:58:45.024Z,1015.7
2018-04-16T16:03:44.991Z,1015.7
2018-04-16T16:08:44.990Z,1015.7
2018-04-16T16:13:45.035Z,1015.7
2018-04-16T16:18:45.037Z,1015.8
2018-04-16T16:23:45.016Z,1015.8
2018-04-16T16:28:46.386Z,1015.7
2018-04-16T16:33:45.204Z,1015.7
2018-04-16T16:38:45.183Z,1015.8
2018-04-16T16:43:45.194Z,1015.9
2018-04-16T16:48:45.165Z,1015.9
2018-04-16T16:53:45.224Z,1016
2018-04-16T16:58:59.350Z,1016.1
2018-04-16T17:03:59.268Z,1016.1
2018-04-16T17:08:59.322Z,1016.2
2018-04-16T17:13:59.303Z,1016.2
2018-04-16T17:18:59.231Z,1016.3
2018-04-16T17:23:59.288Z,1016.5
2018-04-16T17:28:59.706Z,1016.5
2018-04-16T17:34:00.316Z,1016.6
2018-04-16T17:39:00.285Z,1016.7
2018-04-16T17:44:00.213Z,1016.7
2018-04-16T17:49:00.248Z,1016.7
2018-04-16T17:54:02.379Z,1016.8
2018-04-16T17:59:00.744Z,1016.9
2018-04-16T18:04:00.433Z,1017
2018-04-16T18:09:13.976Z,1017
2018-04-16T18:14:13.329Z,1017.1
2018-04-16T18:19:13.352Z,1017.2
2018-04-16T18:24:13.408Z,1017.4
2018-04-16T18:29:13.317Z,1017.5
2018-04-16T18:34:13.350Z,1017.5
2018-04-16T18:39:13.315Z,1017.6
2018-04-16T18:44:15.042Z,1017.7
2018-04-16T18:49:15.742Z,1018.1
2018-04-16T18:54:29.077Z,1018.1
2018-04-16T18:59:29.003Z,1018.3
2018-04-16T19:04:28.921Z,1018.3
2018-04-16T19:09:30.836Z,1018.3
2018-04-16T19:14:29.353Z,1018.4
2018-04-16T19:19:29.103Z,1018.4
2018-04-16T19:24:29.177Z,1018.5
2018-04-16T19:29:32.336Z,1018.5
2018-04-16T19:34:32.594Z,1018.5
2018-04-16T19:39:45.805Z,1018.6
2018-04-16T19:44:45.409Z,1018.7
2018-04-16T19:49:45.368Z,1018.9
2018-04-16T19:54:45.400Z,1018.9
2018-04-16T19:59:45.698Z,1019
2018-04-16T20:04:45.381Z,1019
2018-04-16T20:09:45.406Z,1019.1
2018-04-16T20:14:45.855Z,1019.2
2018-04-16T20:19:45.596Z,1019.3
2018-04-16T20:24:58.436Z,1019.3
2018-04-16T20:29:58.181Z,1019.4
2018-04-16T20:34:58.168Z,1019.5
2018-04-16T20:39:58.181Z,1019.6
2018-04-16T20:44:58.165Z,1019.6
2018-04-16T20:49:58.146Z,1019.6
2018-04-16T20:54:58.176Z,1019.7
2018-04-16T20:59:58.121Z,1019.8
2018-04-16T21:04:58.139Z,1019.8
2018-04-16T21:10:09.699Z,1019.8
2018-04-16T21:15:09.415Z,1019.9
2018-04-16T21:20:09.429Z,1019.8
2018-04-16T21:25:09.391Z,1019.8
2018-04-16T21:30:09.479Z,1019.8
2018-04-16T21:35:09.388Z,1019.9
2018-04-16T21:40:09.449Z,1019.9
2018-04-16T21:45:13.079Z,1019.9
2018-04-16T21:50:12.818Z,1020
2018-04-16T21:55:25.348Z,1020
2018-04-16T22:00:25.092Z,1020.1
2018-04-16T22:05:25.145Z,1020.1
2018-04-16T22:10:25.254Z,1020.2
2018-04-16T22:15:25.505Z,1020.3
2018-04-16T22:20:27.853Z,1020.4
2018-04-16T22:25:25.432Z,1020.5
2018-04-16T22:30:25.595Z,1020.6
2018-04-16T22:35:25.520Z,1020.7
2018-04-16T22:40:25.345Z,1020.7
2018-04-16T22:45:25.372Z,1020.7
2018-04-16T22:50:25.381Z,1020.7
2018-04-16T22:55:28.038Z,1020.7
2018-04-16T23:00:29.080Z,1020.7
2018-04-16T23:05:38.670Z,1020.8
2018-04-16T23:10:38.407Z,1020.8
2018-04-16T23:15:38.397Z,1020.8
2018-04-16T23:20:38.632Z,1020.9
2018-04-16T23:25:38.540Z,1020.9
2018-04-16T23:30:38.412Z,1020.9
2018-04-16T23:35:38.438Z,1020.9
2018-04-16T23:40:39.019Z,1020.9
2018-04-16T23:45:38.843Z,1020.9
2018-04-16T23:50:51.408Z,1020.9
2018-04-16T23:55:51.118Z,1020.9
